sensor_id;sensor_type;location;lat;lon;timestamp;temperature;humidity
33803;DHT22;20110;53.120;5.786;2023-05-15T00:00:13;7.00;99.90
33803;DHT22;20110;53.120;5.786;2023-05-15T00:02:40;7.00;99.90
33803;DHT22;20110;53.120;5.786;2023-05-15T00:05:08;7.00;99.90
33803;DHT22;20110;53.120;5.786;2023-05-15T00:07:36;7.10;99.90
33803;DHT22;20110;53.120;5.786;2023-05-15T00:10:02;7.00;99.90
33803;DHT22;20110;53.120;5.786;2023-05-15T00:12:28;7.00;99.90
33803;DHT22;20110;53.120;5.786;2023-05-15T00:14:54;6.90;99.90
33803;DHT22;20110;53.120;5.786;2023-05-15T00:17:20;6.90;99.90
33803;DHT22;20110;53.120;5.786;2023-05-15T00:19:47;6.80;99.90
33803;DHT22;20110;53.120;5.786;2023-05-15T00:22:12;6.90;99.90
33803;DHT22;20110;53.120;5.786;2023-05-15T00:24:38;7.00;99.90
33803;DHT22;20110;53.120;5.786;2023-05-15T00:27:04;7.10;99.90
33803;DHT22;20110;53.120;5.786;2023-05-15T00:29:30;7.20;99.90
33803;DHT22;20110;53.120;5.786;2023-05-15T00:31:56;7.30;99.90
33803;DHT22;20110;53.120;5.786;2023-05-15T00:34:22;7.30;99.90
33803;DHT22;20110;53.120;5.786;2023-05-15T00:36:48;7.40;99.90
33803;DHT22;20110;53.120;5.786;2023-05-15T00:39:14;7.50;99.90
33803;DHT22;20110;53.120;5.786;2023-05-15T00:41:40;7.60;99.90
33803;DHT22;20110;53.120;5.786;2023-05-15T00:44:09;7.70;99.90
33803;DHT22;20110;53.120;5.786;2023-05-15T00:46:36;7.70;99.90
33803;DHT22;20110;53.120;5.786;2023-05-15T00:49:04;7.80;99.90
33803;DHT22;20110;53.120;5.786;2023-05-15T00:51:31;7.80;99.90
33803;DHT22;20110;53.120;5.786;2023-05-15T00:53:58;7.60;99.90
33803;DHT22;20110;53.120;5.786;2023-05-15T00:56:24;7.50;99.90
33803;DHT22;20110;53.120;5.786;2023-05-15T00:58:53;7.40;99.90
33803;DHT22;20110;53.120;5.786;2023-05-15T01:01:20;7.30;99.90
33803;DHT22;20110;53.120;5.786;2023-05-15T01:03:46;7.20;99.90
33803;DHT22;20110;53.120;5.786;2023-05-15T01:06:12;7.20;99.90
33803;DHT22;20110;53.120;5.786;2023-05-15T01:08:43;7.20;99.90
33803;DHT22;20110;53.120;5.786;2023-05-15T01:11:13;7.20;99.90
33803;DHT22;20110;53.120;5.786;2023-05-15T01:13:39;7.20;99.90
33803;DHT22;20110;53.120;5.786;2023-05-15T01:16:06;7.10;99.90
33803;DHT22;20110;53.120;5.786;2023-05-15T01:18:33;6.90;99.90
33803;DHT22;20110;53.120;5.786;2023-05-15T01:23:38;7.00;99.90
33803;DHT22;20110;53.120;5.786;2023-05-15T01:29:15;7.00;99.90
33803;DHT22;20110;53.120;5.786;2023-05-15T01:32:02;7.00;99.90
33803;DHT22;20110;53.120;5.786;2023-05-15T01:34:43;7.00;99.90
33803;DHT22;20110;53.120;5.786;2023-05-15T01:37:24;7.00;99.90
33803;DHT22;20110;53.120;5.786;2023-05-15T01:39:57;7.20;99.90
33803;DHT22;20110;53.120;5.786;2023-05-15T01:42:32;7.30;99.90
33803;DHT22;20110;53.120;5.786;2023-05-15T01:45:02;7.40;99.90
33803;DHT22;20110;53.120;5.786;2023-05-15T01:47:36;7.40;99.90
33803;DHT22;20110;53.120;5.786;2023-05-15T01:50:12;7.50;99.90
33803;DHT22;20110;53.120;5.786;2023-05-15T01:52:43;7.60;99.90
33803;DHT22;20110;53.120;5.786;2023-05-15T01:55:13;7.60;99.90
33803;DHT22;20110;53.120;5.786;2023-05-15T01:57:41;7.60;99.90
33803;DHT22;20110;53.120;5.786;2023-05-15T02:00:09;7.60;99.90
33803;DHT22;20110;53.120;5.786;2023-05-15T02:02:36;7.70;99.90
33803;DHT22;20110;53.120;5.786;2023-05-15T02:05:03;7.70;99.90
33803;DHT22;20110;53.120;5.786;2023-05-15T02:07:30;7.70;99.90
33803;DHT22;20110;53.120;5.786;2023-05-15T02:09:58;7.70;99.90
33803;DHT22;20110;53.120;5.786;2023-05-15T02:12:26;7.80;99.90
33803;DHT22;20110;53.120;5.786;2023-05-15T02:14:54;7.80;99.90
33803;DHT22;20110;53.120;5.786;2023-05-15T02:17:22;7.70;99.90
33803;DHT22;20110;53.120;5.786;2023-05-15T02:19:49;7.70;99.90
33803;DHT22;20110;53.120;5.786;2023-05-15T02:22:15;7.70;99.90
33803;DHT22;20110;53.120;5.786;2023-05-15T02:24:40;7.60;99.90
33803;DHT22;20110;53.120;5.786;2023-05-15T02:27:19;7.50;99.90
33803;DHT22;20110;53.120;5.786;2023-05-15T02:33:13;7.40;99.90
33803;DHT22;20110;53.120;5.786;2023-05-15T02:36:05;7.30;99.90
33803;DHT22;20110;53.120;5.786;2023-05-15T02:38:59;7.20;99.90
33803;DHT22;20110;53.120;5.786;2023-05-15T02:41:26;7.20;99.90
33803;DHT22;20110;53.120;5.786;2023-05-15T02:43:55;7.20;99.90
33803;DHT22;20110;53.120;5.786;2023-05-15T02:46:22;7.10;99.90
33803;DHT22;20110;53.120;5.786;2023-05-15T02:48:49;7.10;99.90
33803;DHT22;20110;53.120;5.786;2023-05-15T02:51:16;7.00;99.90
33803;DHT22;20110;53.120;5.786;2023-05-15T02:53:42;6.90;99.90
33803;DHT22;20110;53.120;5.786;2023-05-15T02:56:08;6.90;99.90
33803;DHT22;20110;53.120;5.786;2023-05-15T02:58:34;6.90;99.90
33803;DHT22;20110;53.120;5.786;2023-05-15T03:01:00;6.90;99.90
33803;DHT22;20110;53.120;5.786;2023-05-15T03:03:26;6.90;99.90
33803;DHT22;20110;53.120;5.786;2023-05-15T03:05:52;7.00;99.90
33803;DHT22;20110;53.120;5.786;2023-05-15T03:08:18;6.90;99.90
33803;DHT22;20110;53.120;5.786;2023-05-15T03:10:44;6.90;99.90
33803;DHT22;20110;53.120;5.786;2023-05-15T03:13:10;6.80;99.90
33803;DHT22;20110;53.120;5.786;2023-05-15T03:15:36;6.80;99.90
33803;DHT22;20110;53.120;5.786;2023-05-15T03:18:01;6.80;99.90
33803;DHT22;20110;53.120;5.786;2023-05-15T03:20:27;6.70;99.90
33803;DHT22;20110;53.120;5.786;2023-05-15T03:22:53;6.70;99.90
33803;DHT22;20110;53.120;5.786;2023-05-15T03:25:19;6.60;99.90
33803;DHT22;20110;53.120;5.786;2023-05-15T03:27:45;6.60;99.90
33803;DHT22;20110;53.120;5.786;2023-05-15T03:30:11;6.60;99.90
33803;DHT22;20110;53.120;5.786;2023-05-15T03:32:37;6.60;99.90
33803;DHT22;20110;53.120;5.786;2023-05-15T03:35:03;6.60;99.90
33803;DHT22;20110;53.120;5.786;2023-05-15T03:37:29;6.60;99.90
33803;DHT22;20110;53.120;5.786;2023-05-15T03:39:55;6.70;99.90
33803;DHT22;20110;53.120;5.786;2023-05-15T03:42:21;6.70;99.90
33803;DHT22;20110;53.120;5.786;2023-05-15T03:44:51;6.70;99.90
33803;DHT22;20110;53.120;5.786;2023-05-15T03:47:17;6.60;99.90
33803;DHT22;20110;53.120;5.786;2023-05-15T03:49:44;6.50;99.90
33803;DHT22;20110;53.120;5.786;2023-05-15T03:52:10;6.50;99.90
33803;DHT22;20110;53.120;5.786;2023-05-15T03:54:37;6.50;99.90
33803;DHT22;20110;53.120;5.786;2023-05-15T03:57:03;6.50;99.90
33803;DHT22;20110;53.120;5.786;2023-05-15T03:59:29;6.50;99.90
33803;DHT22;20110;53.120;5.786;2023-05-15T04:01:55;6.50;99.90
33803;DHT22;20110;53.120;5.786;2023-05-15T04:04:21;6.50;99.90
33803;DHT22;20110;53.120;5.786;2023-05-15T04:06:47;6.50;99.90
33803;DHT22;20110;53.120;5.786;2023-05-15T04:09:13;6.50;99.90
33803;DHT22;20110;53.120;5.786;2023-05-15T04:11:39;6.60;99.90
33803;DHT22;20110;53.120;5.786;2023-05-15T04:14:04;6.50;99.90
33803;DHT22;20110;53.120;5.786;2023-05-15T04:16:30;6.50;99.90
33803;DHT22;20110;53.120;5.786;2023-05-15T04:18:56;6.50;99.90
33803;DHT22;20110;53.120;5.786;2023-05-15T04:21:22;6.50;99.90
33803;DHT22;20110;53.120;5.786;2023-05-15T04:23:47;6.50;99.90
33803;DHT22;20110;53.120;5.786;2023-05-15T04:26:13;6.60;99.90
33803;DHT22;20110;53.120;5.786;2023-05-15T04:28:39;6.70;99.90
33803;DHT22;20110;53.120;5.786;2023-05-15T04:31:05;6.80;99.90
33803;DHT22;20110;53.120;5.786;2023-05-15T04:33:31;6.90;99.90
33803;DHT22;20110;53.120;5.786;2023-05-15T04:35:57;7.00;99.90
33803;DHT22;20110;53.120;5.786;2023-05-15T04:38:23;7.10;99.90
33803;DHT22;20110;53.120;5.786;2023-05-15T04:40:49;7.20;99.90
33803;DHT22;20110;53.120;5.786;2023-05-15T04:43:15;7.20;99.90
33803;DHT22;20110;53.120;5.786;2023-05-15T04:45:42;7.20;99.90
33803;DHT22;20110;53.120;5.786;2023-05-15T04:48:08;7.10;99.90
33803;DHT22;20110;53.120;5.786;2023-05-15T04:50:34;7.10;99.90
33803;DHT22;20110;53.120;5.786;2023-05-15T04:53:01;7.10;99.90
33803;DHT22;20110;53.120;5.786;2023-05-15T04:55:27;7.10;99.90
33803;DHT22;20110;53.120;5.786;2023-05-15T04:57:52;7.10;99.90
33803;DHT22;20110;53.120;5.786;2023-05-15T05:00:18;7.20;99.90
33803;DHT22;20110;53.120;5.786;2023-05-15T05:02:45;7.30;99.90
33803;DHT22;20110;53.120;5.786;2023-05-15T05:05:11;7.40;99.90
33803;DHT22;20110;53.120;5.786;2023-05-15T05:07:39;7.50;99.90
33803;DHT22;20110;53.120;5.786;2023-05-15T05:10:05;7.60;99.90
33803;DHT22;20110;53.120;5.786;2023-05-15T05:12:32;7.70;99.90
33803;DHT22;20110;53.120;5.786;2023-05-15T05:14:57;7.80;99.90
33803;DHT22;20110;53.120;5.786;2023-05-15T05:17:23;8.00;99.90
33803;DHT22;20110;53.120;5.786;2023-05-15T05:19:49;8.20;99.90
33803;DHT22;20110;53.120;5.786;2023-05-15T05:22:14;8.30;99.90
33803;DHT22;20110;53.120;5.786;2023-05-15T05:24:40;8.50;99.90
33803;DHT22;20110;53.120;5.786;2023-05-15T05:27:06;8.60;99.90
33803;DHT22;20110;53.120;5.786;2023-05-15T05:29:32;8.80;99.90
33803;DHT22;20110;53.120;5.786;2023-05-15T05:31:58;9.00;99.90
33803;DHT22;20110;53.120;5.786;2023-05-15T05:34:28;9.20;99.90
33803;DHT22;20110;53.120;5.786;2023-05-15T05:36:53;9.40;99.90
33803;DHT22;20110;53.120;5.786;2023-05-15T05:39:20;9.50;99.90
33803;DHT22;20110;53.120;5.786;2023-05-15T05:41:45;9.70;99.90
33803;DHT22;20110;53.120;5.786;2023-05-15T05:44:11;9.80;99.90
33803;DHT22;20110;53.120;5.786;2023-05-15T05:46:37;9.90;99.90
33803;DHT22;20110;53.120;5.786;2023-05-15T05:49:03;10.00;99.90
33803;DHT22;20110;53.120;5.786;2023-05-15T05:51:29;10.10;99.90
33803;DHT22;20110;53.120;5.786;2023-05-15T05:53:56;10.00;99.90
33803;DHT22;20110;53.120;5.786;2023-05-15T05:56:21;10.10;99.90
33803;DHT22;20110;53.120;5.786;2023-05-15T05:58:48;10.20;99.90
33803;DHT22;20110;53.120;5.786;2023-05-15T06:01:14;10.30;99.90
33803;DHT22;20110;53.120;5.786;2023-05-15T06:03:41;10.40;99.90
33803;DHT22;20110;53.120;5.786;2023-05-15T06:06:08;10.40;99.90
33803;DHT22;20110;53.120;5.786;2023-05-15T06:08:33;10.40;99.90
33803;DHT22;20110;53.120;5.786;2023-05-15T06:10:59;10.50;99.90
33803;DHT22;20110;53.120;5.786;2023-05-15T06:13:25;10.50;99.90
33803;DHT22;20110;53.120;5.786;2023-05-15T06:15:51;10.50;99.90
33803;DHT22;20110;53.120;5.786;2023-05-15T06:18:17;10.50;99.90
33803;DHT22;20110;53.120;5.786;2023-05-15T06:20:42;10.60;99.90
33803;DHT22;20110;53.120;5.786;2023-05-15T06:23:08;10.50;99.90
33803;DHT22;20110;53.120;5.786;2023-05-15T06:25:35;10.60;99.90
33803;DHT22;20110;53.120;5.786;2023-05-15T06:28:00;10.70;3.60
33803;DHT22;20110;53.120;5.786;2023-05-15T06:30:26;10.80;1.00
33803;DHT22;20110;53.120;5.786;2023-05-15T06:32:52;10.90;99.90
33803;DHT22;20110;53.120;5.786;2023-05-15T06:35:20;11.10;99.90
33803;DHT22;20110;53.120;5.786;2023-05-15T06:37:48;11.10;1.00
33803;DHT22;20110;53.120;5.786;2023-05-15T06:40:16;11.30;1.00
33803;DHT22;20110;53.120;5.786;2023-05-15T06:42:42;11.40;99.90
33803;DHT22;20110;53.120;5.786;2023-05-15T06:45:08;11.40;99.90
33803;DHT22;20110;53.120;5.786;2023-05-15T06:47:34;11.30;99.90
33803;DHT22;20110;53.120;5.786;2023-05-15T06:50:00;11.10;99.90
33803;DHT22;20110;53.120;5.786;2023-05-15T06:52:26;11.10;99.90
33803;DHT22;20110;53.120;5.786;2023-05-15T06:54:51;11.20;99.90
33803;DHT22;20110;53.120;5.786;2023-05-15T06:57:18;11.10;99.90
33803;DHT22;20110;53.120;5.786;2023-05-15T06:59:44;11.00;99.90
33803;DHT22;20110;53.120;5.786;2023-05-15T07:02:10;10.90;98.00
33803;DHT22;20110;53.120;5.786;2023-05-15T07:04:36;11.00;99.90
33803;DHT22;20110;53.120;5.786;2023-05-15T07:07:02;11.30;99.90
33803;DHT22;20110;53.120;5.786;2023-05-15T07:09:28;11.50;40.90
33803;DHT22;20110;53.120;5.786;2023-05-15T07:11:54;11.60;30.00
33803;DHT22;20110;53.120;5.786;2023-05-15T07:14:19;11.70;1.00
33803;DHT22;20110;53.120;5.786;2023-05-15T07:16:45;11.70;1.00
33803;DHT22;20110;53.120;5.786;2023-05-15T07:19:12;11.80;1.00
33803;DHT22;20110;53.120;5.786;2023-05-15T07:21:40;11.90;99.90
33803;DHT22;20110;53.120;5.786;2023-05-15T07:24:06;11.80;99.90
33803;DHT22;20110;53.120;5.786;2023-05-15T07:26:32;11.70;99.90
33803;DHT22;20110;53.120;5.786;2023-05-15T07:28:58;11.60;99.90
33803;DHT22;20110;53.120;5.786;2023-05-15T07:31:24;11.70;99.90
33803;DHT22;20110;53.120;5.786;2023-05-15T07:33:50;11.80;99.90
33803;DHT22;20110;53.120;5.786;2023-05-15T07:36:16;12.10;99.90
33803;DHT22;20110;53.120;5.786;2023-05-15T07:38:41;12.20;99.90
33803;DHT22;20110;53.120;5.786;2023-05-15T07:41:07;12.10;99.90
33803;DHT22;20110;53.120;5.786;2023-05-15T07:43:33;12.30;99.90
33803;DHT22;20110;53.120;5.786;2023-05-15T07:45:59;12.40;99.90
33803;DHT22;20110;53.120;5.786;2023-05-15T07:48:25;12.60;99.90
33803;DHT22;20110;53.120;5.786;2023-05-15T07:50:51;12.90;99.90
33803;DHT22;20110;53.120;5.786;2023-05-15T07:53:18;13.00;99.90
33803;DHT22;20110;53.120;5.786;2023-05-15T07:55:45;13.20;99.90
33803;DHT22;20110;53.120;5.786;2023-05-15T07:58:11;13.40;99.90
33803;DHT22;20110;53.120;5.786;2023-05-15T08:00:36;13.40;99.90
33803;DHT22;20110;53.120;5.786;2023-05-15T08:03:03;13.60;99.90
33803;DHT22;20110;53.120;5.786;2023-05-15T08:05:28;13.80;99.90
33803;DHT22;20110;53.120;5.786;2023-05-15T08:07:59;14.10;99.90
33803;DHT22;20110;53.120;5.786;2023-05-15T08:10:25;14.30;94.70
33803;DHT22;20110;53.120;5.786;2023-05-15T08:12:51;14.60;92.70
33803;DHT22;20110;53.120;5.786;2023-05-15T08:15:17;14.90;48.20
33803;DHT22;20110;53.120;5.786;2023-05-15T08:17:43;15.20;40.00
33803;DHT22;20110;53.120;5.786;2023-05-15T08:20:09;15.20;1.00
33803;DHT22;20110;53.120;5.786;2023-05-15T08:22:35;14.70;1.00
33803;DHT22;20110;53.120;5.786;2023-05-15T08:25:01;14.70;1.00
33803;DHT22;20110;53.120;5.786;2023-05-15T08:27:31;14.80;1.00
33803;DHT22;20110;53.120;5.786;2023-05-15T08:29:57;15.00;1.00
33803;DHT22;20110;53.120;5.786;2023-05-15T08:32:23;15.30;1.00
33803;DHT22;20110;53.120;5.786;2023-05-15T08:34:49;15.30;1.00
33803;DHT22;20110;53.120;5.786;2023-05-15T08:37:15;15.40;1.00
33803;DHT22;20110;53.120;5.786;2023-05-15T08:39:41;15.90;1.00
33803;DHT22;20110;53.120;5.786;2023-05-15T08:42:31;16.10;1.00
33803;DHT22;20110;53.120;5.786;2023-05-15T08:45:00;16.10;1.00
33803;DHT22;20110;53.120;5.786;2023-05-15T08:47:32;15.90;99.90
33803;DHT22;20110;53.120;5.786;2023-05-15T08:50:07;15.50;99.90
33803;DHT22;20110;53.120;5.786;2023-05-15T08:52:37;15.40;99.90
33803;DHT22;20110;53.120;5.786;2023-05-15T08:55:10;15.50;1.00
33803;DHT22;20110;53.120;5.786;2023-05-15T08:57:37;15.70;99.90
33803;DHT22;20110;53.120;5.786;2023-05-15T09:00:04;15.20;99.90
33803;DHT22;20110;53.120;5.786;2023-05-15T09:02:37;15.20;99.90
33803;DHT22;20110;53.120;5.786;2023-05-15T09:05:04;15.30;99.90
33803;DHT22;20110;53.120;5.786;2023-05-15T09:07:31;15.00;99.90
33803;DHT22;20110;53.120;5.786;2023-05-15T09:09:58;14.80;1.00
33803;DHT22;20110;53.120;5.786;2023-05-15T09:12:26;14.90;1.00
33803;DHT22;20110;53.120;5.786;2023-05-15T09:15:13;14.50;1.00
33803;DHT22;20110;53.120;5.786;2023-05-15T09:17:46;14.70;1.00
33803;DHT22;20110;53.120;5.786;2023-05-15T09:20:31;15.00;1.00
33803;DHT22;20110;53.120;5.786;2023-05-15T09:22:59;15.10;1.00
33803;DHT22;20110;53.120;5.786;2023-05-15T09:25:55;15.30;1.00
33803;DHT22;20110;53.120;5.786;2023-05-15T09:28:30;15.50;1.00
33803;DHT22;20110;53.120;5.786;2023-05-15T09:30:58;15.00;99.90
33803;DHT22;20110;53.120;5.786;2023-05-15T09:33:32;15.00;1.00
33803;DHT22;20110;53.120;5.786;2023-05-15T09:36:01;15.50;1.00
33803;DHT22;20110;53.120;5.786;2023-05-15T09:38:28;15.50;99.90
33803;DHT22;20110;53.120;5.786;2023-05-15T09:41:01;15.60;99.90
33803;DHT22;20110;53.120;5.786;2023-05-15T09:43:33;15.50;99.90
33803;DHT22;20110;53.120;5.786;2023-05-15T09:45:59;15.20;99.90
33803;DHT22;20110;53.120;5.786;2023-05-15T09:48:25;15.30;99.90
33803;DHT22;20110;53.120;5.786;2023-05-15T09:50:53;15.00;99.90
33803;DHT22;20110;53.120;5.786;2023-05-15T09:53:20;15.10;1.00
33803;DHT22;20110;53.120;5.786;2023-05-15T09:55:47;15.60;99.90
33803;DHT22;20110;53.120;5.786;2023-05-15T09:58:16;15.70;99.90
33803;DHT22;20110;53.120;5.786;2023-05-15T10:00:44;15.70;99.90
33803;DHT22;20110;53.120;5.786;2023-05-15T10:03:11;16.10;99.90
33803;DHT22;20110;53.120;5.786;2023-05-15T10:05:38;16.00;99.90
33803;DHT22;20110;53.120;5.786;2023-05-15T10:08:05;15.40;99.90
33803;DHT22;20110;53.120;5.786;2023-05-15T10:10:31;15.40;99.90
33803;DHT22;20110;53.120;5.786;2023-05-15T10:12:59;15.70;99.90
33803;DHT22;20110;53.120;5.786;2023-05-15T10:15:30;16.30;99.90
33803;DHT22;20110;53.120;5.786;2023-05-15T10:17:58;16.10;99.90
33803;DHT22;20110;53.120;5.786;2023-05-15T10:20:25;16.30;99.90
33803;DHT22;20110;53.120;5.786;2023-05-15T10:22:54;16.10;99.90
33803;DHT22;20110;53.120;5.786;2023-05-15T10:28:10;16.10;99.90
33803;DHT22;20110;53.120;5.786;2023-05-15T10:30:37;16.10;99.90
33803;DHT22;20110;53.120;5.786;2023-05-15T10:33:05;16.40;99.90
33803;DHT22;20110;53.120;5.786;2023-05-15T10:35:33;16.80;99.90
33803;DHT22;20110;53.120;5.786;2023-05-15T10:37:59;17.20;99.90
33803;DHT22;20110;53.120;5.786;2023-05-15T10:40:29;17.00;99.90
33803;DHT22;20110;53.120;5.786;2023-05-15T10:42:55;16.40;99.90
33803;DHT22;20110;53.120;5.786;2023-05-15T10:45:26;16.30;99.90
33803;DHT22;20110;53.120;5.786;2023-05-15T10:47:53;16.00;99.90
33803;DHT22;20110;53.120;5.786;2023-05-15T10:50:20;15.70;99.90
33803;DHT22;20110;53.120;5.786;2023-05-15T10:52:49;15.70;99.90
33803;DHT22;20110;53.120;5.786;2023-05-15T10:55:17;15.40;99.90
33803;DHT22;20110;53.120;5.786;2023-05-15T10:57:46;15.10;99.90
33803;DHT22;20110;53.120;5.786;2023-05-15T11:00:33;14.80;99.90
33803;DHT22;20110;53.120;5.786;2023-05-15T11:03:06;14.70;99.90
33803;DHT22;20110;53.120;5.786;2023-05-15T11:08:39;14.30;99.90
33803;DHT22;20110;53.120;5.786;2023-05-15T11:11:06;14.00;99.90
33803;DHT22;20110;53.120;5.786;2023-05-15T11:22:14;13.20;1.00
33803;DHT22;20110;53.120;5.786;2023-05-15T11:27:43;13.30;1.00
33803;DHT22;20110;53.120;5.786;2023-05-15T11:30:20;13.50;1.00
33803;DHT22;20110;53.120;5.786;2023-05-15T11:35:39;14.10;1.00
33803;DHT22;20110;53.120;5.786;2023-05-15T11:40:56;14.10;1.00
33803;DHT22;20110;53.120;5.786;2023-05-15T11:43:28;14.00;1.00
33803;DHT22;20110;53.120;5.786;2023-05-15T11:48:39;13.80;1.00
33803;DHT22;20110;53.120;5.786;2023-05-15T11:51:18;13.80;1.00
33803;DHT22;20110;53.120;5.786;2023-05-15T11:53:49;13.90;1.00
33803;DHT22;20110;53.120;5.786;2023-05-15T11:56:19;14.50;1.00
33803;DHT22;20110;53.120;5.786;2023-05-15T11:58:58;14.60;1.00
33803;DHT22;20110;53.120;5.786;2023-05-15T12:01:26;14.40;1.00
33803;DHT22;20110;53.120;5.786;2023-05-15T12:03:54;14.70;1.00
33803;DHT22;20110;53.120;5.786;2023-05-15T12:06:20;14.60;99.90
33803;DHT22;20110;53.120;5.786;2023-05-15T12:08:52;14.80;1.00
33803;DHT22;20110;53.120;5.786;2023-05-15T12:11:22;14.90;99.90
33803;DHT22;20110;53.120;5.786;2023-05-15T12:13:52;14.30;99.90
33803;DHT22;20110;53.120;5.786;2023-05-15T12:16:25;13.80;1.00
33803;DHT22;20110;53.120;5.786;2023-05-15T12:18:52;13.70;1.00
33803;DHT22;20110;53.120;5.786;2023-05-15T12:21:18;13.90;1.00
33803;DHT22;20110;53.120;5.786;2023-05-15T12:23:53;13.80;1.00
33803;DHT22;20110;53.120;5.786;2023-05-15T12:26:20;13.70;1.00
33803;DHT22;20110;53.120;5.786;2023-05-15T12:28:48;13.60;1.00
33803;DHT22;20110;53.120;5.786;2023-05-15T12:31:15;13.30;1.00
33803;DHT22;20110;53.120;5.786;2023-05-15T12:33:42;12.60;1.00
33803;DHT22;20110;53.120;5.786;2023-05-15T12:36:09;13.10;1.00
33803;DHT22;20110;53.120;5.786;2023-05-15T12:38:35;13.20;1.00
33803;DHT22;20110;53.120;5.786;2023-05-15T12:41:01;13.20;1.00
33803;DHT22;20110;53.120;5.786;2023-05-15T12:43:27;13.30;1.00
33803;DHT22;20110;53.120;5.786;2023-05-15T12:45:56;13.60;1.00
33803;DHT22;20110;53.120;5.786;2023-05-15T12:48:27;13.90;1.00
33803;DHT22;20110;53.120;5.786;2023-05-15T12:51:03;14.10;1.00
33803;DHT22;20110;53.120;5.786;2023-05-15T12:53:32;13.90;1.00
33803;DHT22;20110;53.120;5.786;2023-05-15T12:55:59;14.00;1.00
33803;DHT22;20110;53.120;5.786;2023-05-15T12:58:25;14.20;1.00
33803;DHT22;20110;53.120;5.786;2023-05-15T13:00:51;14.20;1.00
33803;DHT22;20110;53.120;5.786;2023-05-15T13:03:19;14.10;1.00
33803;DHT22;20110;53.120;5.786;2023-05-15T13:05:46;13.90;1.00
33803;DHT22;20110;53.120;5.786;2023-05-15T13:08:16;13.60;1.00
33803;DHT22;20110;53.120;5.786;2023-05-15T13:10:43;13.40;31.20
33803;DHT22;20110;53.120;5.786;2023-05-15T13:13:09;13.30;1.00
33803;DHT22;20110;53.120;5.786;2023-05-15T13:15:39;13.20;40.30
33803;DHT22;20110;53.120;5.786;2023-05-15T13:18:12;13.10;71.40
33803;DHT22;20110;53.120;5.786;2023-05-15T13:20:47;13.40;98.20
33803;DHT22;20110;53.120;5.786;2023-05-15T13:23:19;13.40;62.30
33803;DHT22;20110;53.120;5.786;2023-05-15T13:25:48;13.50;54.40
33803;DHT22;20110;53.120;5.786;2023-05-15T13:28:14;13.70;1.00
33803;DHT22;20110;53.120;5.786;2023-05-15T13:30:41;13.60;1.00
33803;DHT22;20110;53.120;5.786;2023-05-15T13:33:08;13.60;1.00
33803;DHT22;20110;53.120;5.786;2023-05-15T13:35:36;13.90;1.00
33803;DHT22;20110;53.120;5.786;2023-05-15T13:38:03;14.30;1.00
33803;DHT22;20110;53.120;5.786;2023-05-15T13:40:30;14.20;1.00
33803;DHT22;20110;53.120;5.786;2023-05-15T13:43:01;14.00;1.00
33803;DHT22;20110;53.120;5.786;2023-05-15T13:45:27;14.20;1.00
33803;DHT22;20110;53.120;5.786;2023-05-15T13:47:56;14.40;1.00
33803;DHT22;20110;53.120;5.786;2023-05-15T13:50:22;14.40;1.00
33803;DHT22;20110;53.120;5.786;2023-05-15T13:52:48;14.50;1.00
33803;DHT22;20110;53.120;5.786;2023-05-15T13:55:14;14.60;1.00
33803;DHT22;20110;53.120;5.786;2023-05-15T13:57:41;14.30;1.00
33803;DHT22;20110;53.120;5.786;2023-05-15T14:00:09;13.90;1.00
33803;DHT22;20110;53.120;5.786;2023-05-15T14:02:38;13.30;1.00
33803;DHT22;20110;53.120;5.786;2023-05-15T14:05:04;12.90;33.60
33803;DHT22;20110;53.120;5.786;2023-05-15T14:07:31;12.70;84.10
33803;DHT22;20110;53.120;5.786;2023-05-15T14:09:57;12.60;91.20
33803;DHT22;20110;53.120;5.786;2023-05-15T14:12:23;12.80;99.90
33803;DHT22;20110;53.120;5.786;2023-05-15T14:14:48;13.10;99.90
33803;DHT22;20110;53.120;5.786;2023-05-15T14:17:15;13.40;99.90
33803;DHT22;20110;53.120;5.786;2023-05-15T14:19:41;13.50;99.90
33803;DHT22;20110;53.120;5.786;2023-05-15T14:22:07;13.30;95.90
33803;DHT22;20110;53.120;5.786;2023-05-15T14:24:33;13.30;99.90
33803;DHT22;20110;53.120;5.786;2023-05-15T14:26:59;13.10;99.90
33803;DHT22;20110;53.120;5.786;2023-05-15T14:29:25;13.00;99.90
33803;DHT22;20110;53.120;5.786;2023-05-15T14:31:51;12.70;99.90
33803;DHT22;20110;53.120;5.786;2023-05-15T14:34:18;13.00;99.90
33803;DHT22;20110;53.120;5.786;2023-05-15T14:36:46;13.00;99.90
33803;DHT22;20110;53.120;5.786;2023-05-15T14:39:18;12.70;99.90
33803;DHT22;20110;53.120;5.786;2023-05-15T14:41:44;12.70;99.90
33803;DHT22;20110;53.120;5.786;2023-05-15T14:44:10;12.80;99.90
33803;DHT22;20110;53.120;5.786;2023-05-15T14:46:36;12.90;99.90
33803;DHT22;20110;53.120;5.786;2023-05-15T14:49:03;12.90;99.90
33803;DHT22;20110;53.120;5.786;2023-05-15T14:51:29;12.70;99.90
33803;DHT22;20110;53.120;5.786;2023-05-15T14:53:56;12.50;99.90
33803;DHT22;20110;53.120;5.786;2023-05-15T14:56:22;12.60;99.90
33803;DHT22;20110;53.120;5.786;2023-05-15T14:58:49;12.80;99.90
33803;DHT22;20110;53.120;5.786;2023-05-15T15:01:16;12.60;99.90
33803;DHT22;20110;53.120;5.786;2023-05-15T15:03:42;12.80;99.90
33803;DHT22;20110;53.120;5.786;2023-05-15T15:06:08;13.00;99.90
33803;DHT22;20110;53.120;5.786;2023-05-15T15:08:33;13.20;99.90
33803;DHT22;20110;53.120;5.786;2023-05-15T15:11:00;13.40;99.90
33803;DHT22;20110;53.120;5.786;2023-05-15T15:13:26;13.40;96.00
33803;DHT22;20110;53.120;5.786;2023-05-15T15:15:54;13.40;98.50
33803;DHT22;20110;53.120;5.786;2023-05-15T15:18:20;13.40;93.70
33803;DHT22;20110;53.120;5.786;2023-05-15T15:20:47;13.30;95.90
33803;DHT22;20110;53.120;5.786;2023-05-15T15:23:13;13.20;75.50
33803;DHT22;20110;53.120;5.786;2023-05-15T15:25:39;13.30;94.60
33803;DHT22;20110;53.120;5.786;2023-05-15T15:28:05;13.40;57.90
33803;DHT22;20110;53.120;5.786;2023-05-15T15:30:31;13.60;35.20
33803;DHT22;20110;53.120;5.786;2023-05-15T15:32:57;13.70;59.40
33803;DHT22;20110;53.120;5.786;2023-05-15T15:35:23;13.60;25.40
33803;DHT22;20110;53.120;5.786;2023-05-15T15:37:50;13.60;18.70
33803;DHT22;20110;53.120;5.786;2023-05-15T15:40:17;13.50;38.70
33803;DHT22;20110;53.120;5.786;2023-05-15T15:42:43;13.30;26.80
33803;DHT22;20110;53.120;5.786;2023-05-15T15:45:10;13.10;50.70
33803;DHT22;20110;53.120;5.786;2023-05-15T15:47:35;13.00;71.90
33803;DHT22;20110;53.120;5.786;2023-05-15T15:50:01;13.10;88.00
33803;DHT22;20110;53.120;5.786;2023-05-15T15:52:27;13.10;85.20
33803;DHT22;20110;53.120;5.786;2023-05-15T15:54:53;13.10;84.20
33803;DHT22;20110;53.120;5.786;2023-05-15T15:57:20;13.10;91.90
33803;DHT22;20110;53.120;5.786;2023-05-15T15:59:46;13.10;79.90
33803;DHT22;20110;53.120;5.786;2023-05-15T16:02:12;13.10;79.70
33803;DHT22;20110;53.120;5.786;2023-05-15T16:04:39;12.80;81.60
33803;DHT22;20110;53.120;5.786;2023-05-15T16:07:05;12.70;97.80
33803;DHT22;20110;53.120;5.786;2023-05-15T16:09:32;12.60;96.00
33803;DHT22;20110;53.120;5.786;2023-05-15T16:11:58;12.40;99.90
33803;DHT22;20110;53.120;5.786;2023-05-15T16:14:25;12.50;99.90
33803;DHT22;20110;53.120;5.786;2023-05-15T16:16:52;12.30;99.90